Augsburg, Illinois
Current Conditions -  °F | °C
As of 6:35 AM on Sunday 21 Dec 2014 (Local Time) from KSLO Reporting Station
Overcast Overcast  
Wind Chill: 31°   Ceiling: 2700
Heat Index: 35°   Visibility: 10mi
Dew Point: 28°   Wind: 5mph
Humidity: 77%   Direction: 130°SE
Pressure: 30.26"   Gusts: NA
Location:  38.8463°N, 89.0894°W
Report Text: KSLO 211235Z AUTO 13004KT 10SM OVC027 02/M02 A3026 RMK AO2 T00161020
Loading
Personal Weather Stations






























Interactive Weather Map New forecast layout! Learn more

10-Day Weather Forecast

Advertisements
Track Severe Weather on mobile